sensor_id;sensor_type;location;lat;lon;timestamp;P1;durP1;ratioP1;P2;durP2;ratioP2
22015;SDS011;64992;51.698;-0.292;2024-01-25T00:01:22;76.05;;;33.80;;
22015;SDS011;64992;51.698;-0.292;2024-01-25T00:03:49;71.25;;;33.35;;
22015;SDS011;64992;51.698;-0.292;2024-01-25T00:06:15;58.08;;;34.75;;
22015;SDS011;64992;51.698;-0.292;2024-01-25T00:08:40;74.13;;;36.38;;
22015;SDS011;64992;51.698;-0.292;2024-01-25T00:11:07;58.75;;;34.30;;
22015;SDS011;64992;51.698;-0.292;2024-01-25T00:13:34;64.30;;;35.95;;
22015;SDS011;64992;51.698;-0.292;2024-01-25T00:16:00;72.85;;;34.53;;
22015;SDS011;64992;51.698;-0.292;2024-01-25T00:18:27;71.45;;;35.17;;
22015;SDS011;64992;51.698;-0.292;2024-01-25T00:20:55;63.25;;;34.97;;
22015;SDS011;64992;51.698;-0.292;2024-01-25T00:23:21;62.38;;;33.70;;
22015;SDS011;64992;51.698;-0.292;2024-01-25T00:25:47;61.38;;;38.08;;
22015;SDS011;64992;51.698;-0.292;2024-01-25T00:28:13;54.53;;;35.13;;
22015;SDS011;64992;51.698;-0.292;2024-01-25T00:30:39;57.05;;;35.90;;
22015;SDS011;64992;51.698;-0.292;2024-01-25T00:33:05;64.25;;;34.40;;
22015;SDS011;64992;51.698;-0.292;2024-01-25T00:35:31;64.25;;;34.25;;
22015;SDS011;64992;51.698;-0.292;2024-01-25T00:37:58;60.13;;;34.55;;
22015;SDS011;64992;51.698;-0.292;2024-01-25T00:40:25;56.75;;;32.63;;
22015;SDS011;64992;51.698;-0.292;2024-01-25T00:42:51;87.65;;;35.33;;
22015;SDS011;64992;51.698;-0.292;2024-01-25T00:45:21;52.17;;;34.78;;
22015;SDS011;64992;51.698;-0.292;2024-01-25T00:47:48;60.45;;;33.88;;
22015;SDS011;64992;51.698;-0.292;2024-01-25T00:50:14;65.90;;;33.63;;
22015;SDS011;64992;51.698;-0.292;2024-01-25T00:52:42;65.38;;;33.63;;
22015;SDS011;64992;51.698;-0.292;2024-01-25T00:55:09;65.70;;;33.47;;
22015;SDS011;64992;51.698;-0.292;2024-01-25T00:57:35;54.67;;;32.92;;
22015;SDS011;64992;51.698;-0.292;2024-01-25T01:00:02;46.15;;;32.55;;
22015;SDS011;64992;51.698;-0.292;2024-01-25T01:02:29;70.93;;;36.03;;
22015;SDS011;64992;51.698;-0.292;2024-01-25T01:04:59;41.72;;;33.25;;
22015;SDS011;64992;51.698;-0.292;2024-01-25T01:07:25;53.40;;;32.38;;
22015;SDS011;64992;51.698;-0.292;2024-01-25T01:09:51;68.80;;;32.63;;
22015;SDS011;64992;51.698;-0.292;2024-01-25T01:12:17;53.50;;;32.03;;
22015;SDS011;64992;51.698;-0.292;2024-01-25T01:14:43;59.25;;;33.78;;
22015;SDS011;64992;51.698;-0.292;2024-01-25T01:17:09;62.80;;;33.38;;
22015;SDS011;64992;51.698;-0.292;2024-01-25T01:19:35;76.03;;;35.03;;
22015;SDS011;64992;51.698;-0.292;2024-01-25T01:22:02;75.28;;;34.10;;
22015;SDS011;64992;51.698;-0.292;2024-01-25T01:24:28;59.20;;;34.35;;
22015;SDS011;64992;51.698;-0.292;2024-01-25T01:26:54;59.40;;;34.90;;
22015;SDS011;64992;51.698;-0.292;2024-01-25T01:29:20;67.88;;;34.83;;
22015;SDS011;64992;51.698;-0.292;2024-01-25T01:31:46;59.47;;;32.53;;
22015;SDS011;64992;51.698;-0.292;2024-01-25T01:34:12;60.53;;;35.13;;
22015;SDS011;64992;51.698;-0.292;2024-01-25T01:36:38;69.82;;;35.45;;
22015;SDS011;64992;51.698;-0.292;2024-01-25T01:39:05;60.80;;;33.67;;
22015;SDS011;64992;51.698;-0.292;2024-01-25T01:41:31;52.65;;;33.58;;
22015;SDS011;64992;51.698;-0.292;2024-01-25T01:43:57;61.20;;;33.42;;
22015;SDS011;64992;51.698;-0.292;2024-01-25T01:48:55;74.20;;;34.95;;
22015;SDS011;64992;51.698;-0.292;2024-01-25T01:51:21;64.05;;;35.22;;
22015;SDS011;64992;51.698;-0.292;2024-01-25T01:53:47;54.08;;;32.80;;
22015;SDS011;64992;51.698;-0.292;2024-01-25T01:56:14;66.45;;;35.17;;
22015;SDS011;64992;51.698;-0.292;2024-01-25T01:58:40;45.95;;;33.10;;
22015;SDS011;64992;51.698;-0.292;2024-01-25T02:01:06;53.13;;;34.55;;
22015;SDS011;64992;51.698;-0.292;2024-01-25T02:03:32;48.40;;;34.20;;
22015;SDS011;64992;51.698;-0.292;2024-01-25T02:06:00;62.17;;;36.63;;
22015;SDS011;64992;51.698;-0.292;2024-01-25T02:08:30;73.25;;;35.33;;
22015;SDS011;64992;51.698;-0.292;2024-01-25T02:10:56;53.50;;;33.25;;
22015;SDS011;64992;51.698;-0.292;2024-01-25T02:13:22;63.38;;;32.60;;
22015;SDS011;64992;51.698;-0.292;2024-01-25T02:15:49;49.72;;;32.85;;
22015;SDS011;64992;51.698;-0.292;2024-01-25T02:18:15;57.22;;;35.47;;
22015;SDS011;64992;51.698;-0.292;2024-01-25T02:20:41;69.38;;;35.70;;
22015;SDS011;64992;51.698;-0.292;2024-01-25T02:23:07;44.97;;;32.85;;
22015;SDS011;64992;51.698;-0.292;2024-01-25T02:25:33;68.47;;;33.22;;
22015;SDS011;64992;51.698;-0.292;2024-01-25T02:27:59;71.10;;;34.13;;
22015;SDS011;64992;51.698;-0.292;2024-01-25T02:30:25;57.28;;;35.40;;
22015;SDS011;64992;51.698;-0.292;2024-01-25T02:32:51;54.03;;;33.03;;
22015;SDS011;64992;51.698;-0.292;2024-01-25T02:35:17;59.08;;;32.92;;
22015;SDS011;64992;51.698;-0.292;2024-01-25T02:37:43;55.65;;;35.13;;
22015;SDS011;64992;51.698;-0.292;2024-01-25T02:40:10;63.60;;;34.35;;
22015;SDS011;64992;51.698;-0.292;2024-01-25T02:42:36;52.38;;;33.53;;
22015;SDS011;64992;51.698;-0.292;2024-01-25T02:45:02;56.25;;;33.55;;
22015;SDS011;64992;51.698;-0.292;2024-01-25T02:47:28;69.93;;;34.88;;
22015;SDS011;64992;51.698;-0.292;2024-01-25T02:49:54;61.88;;;33.47;;
22015;SDS011;64992;51.698;-0.292;2024-01-25T02:52:20;65.55;;;33.53;;
22015;SDS011;64992;51.698;-0.292;2024-01-25T02:54:46;62.97;;;35.47;;
22015;SDS011;64992;51.698;-0.292;2024-01-25T02:57:12;55.88;;;34.72;;
22015;SDS011;64992;51.698;-0.292;2024-01-25T02:59:38;94.95;;;35.45;;
22015;SDS011;64992;51.698;-0.292;2024-01-25T03:02:04;70.55;;;35.03;;
22015;SDS011;64992;51.698;-0.292;2024-01-25T03:04:30;52.13;;;34.65;;
22015;SDS011;64992;51.698;-0.292;2024-01-25T03:06:56;66.43;;;35.80;;
22015;SDS011;64992;51.698;-0.292;2024-01-25T03:09:22;61.28;;;34.22;;
22015;SDS011;64992;51.698;-0.292;2024-01-25T03:11:48;65.13;;;34.92;;
22015;SDS011;64992;51.698;-0.292;2024-01-25T03:14:15;62.05;;;33.90;;
22015;SDS011;64992;51.698;-0.292;2024-01-25T03:16:41;55.50;;;35.10;;
22015;SDS011;64992;51.698;-0.292;2024-01-25T03:19:08;59.08;;;34.28;;
22015;SDS011;64992;51.698;-0.292;2024-01-25T03:21:34;48.83;;;35.10;;
22015;SDS011;64992;51.698;-0.292;2024-01-25T03:24:00;72.13;;;36.53;;
22015;SDS011;64992;51.698;-0.292;2024-01-25T03:26:29;64.60;;;34.53;;
22015;SDS011;64992;51.698;-0.292;2024-01-25T03:28:55;66.20;;;34.53;;
22015;SDS011;64992;51.698;-0.292;2024-01-25T03:31:21;63.90;;;34.85;;
22015;SDS011;64992;51.698;-0.292;2024-01-25T03:33:47;64.95;;;36.50;;
22015;SDS011;64992;51.698;-0.292;2024-01-25T03:36:14;58.50;;;35.88;;
22015;SDS011;64992;51.698;-0.292;2024-01-25T03:38:40;64.75;;;35.97;;
22015;SDS011;64992;51.698;-0.292;2024-01-25T03:41:07;61.00;;;35.10;;
22015;SDS011;64992;51.698;-0.292;2024-01-25T03:43:34;78.47;;;37.15;;
22015;SDS011;64992;51.698;-0.292;2024-01-25T03:46:00;62.90;;;37.05;;
22015;SDS011;64992;51.698;-0.292;2024-01-25T03:48:27;69.60;;;35.78;;
22015;SDS011;64992;51.698;-0.292;2024-01-25T03:50:54;72.75;;;36.65;;
22015;SDS011;64992;51.698;-0.292;2024-01-25T03:53:21;80.63;;;38.60;;
22015;SDS011;64992;51.698;-0.292;2024-01-25T03:55:47;70.35;;;35.63;;
22015;SDS011;64992;51.698;-0.292;2024-01-25T03:58:14;54.58;;;36.03;;
22015;SDS011;64992;51.698;-0.292;2024-01-25T04:00:40;67.30;;;36.42;;
22015;SDS011;64992;51.698;-0.292;2024-01-25T04:03:06;59.40;;;35.92;;
22015;SDS011;64992;51.698;-0.292;2024-01-25T04:05:32;51.38;;;36.25;;
22015;SDS011;64992;51.698;-0.292;2024-01-25T04:07:58;67.32;;;35.38;;
22015;SDS011;64992;51.698;-0.292;2024-01-25T04:10:24;65.82;;;35.75;;
22015;SDS011;64992;51.698;-0.292;2024-01-25T04:12:50;72.60;;;34.88;;
22015;SDS011;64992;51.698;-0.292;2024-01-25T04:15:17;74.82;;;36.63;;
22015;SDS011;64992;51.698;-0.292;2024-01-25T04:17:43;59.53;;;35.55;;
22015;SDS011;64992;51.698;-0.292;2024-01-25T04:20:09;64.18;;;34.97;;
22015;SDS011;64992;51.698;-0.292;2024-01-25T04:22:35;58.78;;;35.70;;
22015;SDS011;64992;51.698;-0.292;2024-01-25T04:25:02;67.20;;;33.92;;
22015;SDS011;64992;51.698;-0.292;2024-01-25T04:27:28;50.67;;;33.60;;
22015;SDS011;64992;51.698;-0.292;2024-01-25T04:29:54;40.72;;;31.52;;
22015;SDS011;64992;51.698;-0.292;2024-01-25T04:32:20;61.35;;;34.47;;
22015;SDS011;64992;51.698;-0.292;2024-01-25T04:34:46;55.47;;;35.33;;
22015;SDS011;64992;51.698;-0.292;2024-01-25T04:37:13;59.42;;;36.63;;
22015;SDS011;64992;51.698;-0.292;2024-01-25T04:39:39;64.80;;;35.47;;
22015;SDS011;64992;51.698;-0.292;2024-01-25T04:42:05;56.85;;;34.13;;
22015;SDS011;64992;51.698;-0.292;2024-01-25T04:44:31;71.85;;;36.50;;
22015;SDS011;64992;51.698;-0.292;2024-01-25T04:46:57;47.00;;;32.63;;
22015;SDS011;64992;51.698;-0.292;2024-01-25T04:49:23;72.38;;;35.78;;
22015;SDS011;64992;51.698;-0.292;2024-01-25T04:51:50;58.67;;;34.10;;
22015;SDS011;64992;51.698;-0.292;2024-01-25T04:54:16;70.18;;;34.33;;
22015;SDS011;64992;51.698;-0.292;2024-01-25T04:56:43;65.38;;;34.60;;
22015;SDS011;64992;51.698;-0.292;2024-01-25T04:59:09;74.53;;;35.50;;
22015;SDS011;64992;51.698;-0.292;2024-01-25T05:01:35;65.75;;;34.05;;
22015;SDS011;64992;51.698;-0.292;2024-01-25T05:04:01;53.80;;;34.15;;
22015;SDS011;64992;51.698;-0.292;2024-01-25T05:06:28;42.80;;;31.70;;
22015;SDS011;64992;51.698;-0.292;2024-01-25T05:08:54;64.10;;;33.92;;
22015;SDS011;64992;51.698;-0.292;2024-01-25T05:11:20;51.63;;;33.33;;
22015;SDS011;64992;51.698;-0.292;2024-01-25T05:13:47;65.97;;;33.42;;
22015;SDS011;64992;51.698;-0.292;2024-01-25T05:16:14;58.80;;;32.85;;
22015;SDS011;64992;51.698;-0.292;2024-01-25T05:18:40;58.45;;;31.20;;
22015;SDS011;64992;51.698;-0.292;2024-01-25T05:21:06;57.85;;;31.88;;
22015;SDS011;64992;51.698;-0.292;2024-01-25T05:23:32;52.55;;;32.78;;
22015;SDS011;64992;51.698;-0.292;2024-01-25T05:25:58;63.00;;;34.80;;
22015;SDS011;64992;51.698;-0.292;2024-01-25T05:28:24;54.80;;;32.13;;
22015;SDS011;64992;51.698;-0.292;2024-01-25T05:30:50;42.28;;;30.45;;
22015;SDS011;64992;51.698;-0.292;2024-01-25T05:33:16;67.03;;;30.63;;
22015;SDS011;64992;51.698;-0.292;2024-01-25T05:35:42;60.10;;;32.60;;
22015;SDS011;64992;51.698;-0.292;2024-01-25T05:38:08;62.75;;;31.58;;
22015;SDS011;64992;51.698;-0.292;2024-01-25T05:40:34;42.72;;;28.83;;
22015;SDS011;64992;51.698;-0.292;2024-01-25T05:43:00;47.22;;;27.92;;
22015;SDS011;64992;51.698;-0.292;2024-01-25T05:45:26;45.55;;;28.52;;
22015;SDS011;64992;51.698;-0.292;2024-01-25T05:47:52;54.53;;;29.08;;
22015;SDS011;64992;51.698;-0.292;2024-01-25T05:50:18;58.78;;;28.70;;
22015;SDS011;64992;51.698;-0.292;2024-01-25T05:52:44;48.63;;;29.45;;
22015;SDS011;64992;51.698;-0.292;2024-01-25T05:55:10;63.42;;;29.20;;
22015;SDS011;64992;51.698;-0.292;2024-01-25T05:57:39;50.35;;;29.83;;
22015;SDS011;64992;51.698;-0.292;2024-01-25T06:00:05;47.00;;;29.40;;
22015;SDS011;64992;51.698;-0.292;2024-01-25T06:02:31;51.33;;;29.95;;
22015;SDS011;64992;51.698;-0.292;2024-01-25T06:04:57;51.17;;;30.40;;
22015;SDS011;64992;51.698;-0.292;2024-01-25T06:07:24;67.20;;;29.45;;
22015;SDS011;64992;51.698;-0.292;2024-01-25T06:09:50;60.83;;;32.28;;
22015;SDS011;64992;51.698;-0.292;2024-01-25T06:12:16;71.57;;;31.08;;
22015;SDS011;64992;51.698;-0.292;2024-01-25T06:14:42;56.95;;;31.73;;
22015;SDS011;64992;51.698;-0.292;2024-01-25T06:17:08;57.13;;;32.80;;
22015;SDS011;64992;51.698;-0.292;2024-01-25T06:19:34;63.88;;;32.55;;
22015;SDS011;64992;51.698;-0.292;2024-01-25T06:22:00;75.57;;;33.75;;
22015;SDS011;64992;51.698;-0.292;2024-01-25T06:24:27;66.10;;;32.42;;
22015;SDS011;64992;51.698;-0.292;2024-01-25T06:26:53;61.70;;;32.95;;
22015;SDS011;64992;51.698;-0.292;2024-01-25T06:29:20;58.70;;;33.47;;
22015;SDS011;64992;51.698;-0.292;2024-01-25T06:31:46;55.30;;;35.15;;
22015;SDS011;64992;51.698;-0.292;2024-01-25T06:34:12;55.47;;;32.38;;
22015;SDS011;64992;51.698;-0.292;2024-01-25T06:36:38;57.78;;;32.45;;
22015;SDS011;64992;51.698;-0.292;2024-01-25T06:39:04;65.47;;;31.50;;
22015;SDS011;64992;51.698;-0.292;2024-01-25T06:41:30;63.78;;;32.72;;
22015;SDS011;64992;51.698;-0.292;2024-01-25T06:43:56;64.25;;;34.40;;
22015;SDS011;64992;51.698;-0.292;2024-01-25T06:46:22;70.28;;;35.40;;
22015;SDS011;64992;51.698;-0.292;2024-01-25T06:48:50;63.72;;;31.65;;
22015;SDS011;64992;51.698;-0.292;2024-01-25T06:51:16;54.53;;;33.08;;
22015;SDS011;64992;51.698;-0.292;2024-01-25T06:53:42;74.05;;;36.97;;
22015;SDS011;64992;51.698;-0.292;2024-01-25T06:56:08;65.05;;;34.80;;
22015;SDS011;64992;51.698;-0.292;2024-01-25T06:58:34;61.20;;;33.42;;
22015;SDS011;64992;51.698;-0.292;2024-01-25T07:01:00;55.63;;;36.22;;
22015;SDS011;64992;51.698;-0.292;2024-01-25T07:03:26;75.93;;;35.30;;
22015;SDS011;64992;51.698;-0.292;2024-01-25T07:05:52;64.68;;;35.53;;
22015;SDS011;64992;51.698;-0.292;2024-01-25T07:08:18;82.60;;;38.42;;
22015;SDS011;64992;51.698;-0.292;2024-01-25T07:10:44;69.10;;;37.90;;
22015;SDS011;64992;51.698;-0.292;2024-01-25T07:13:11;70.60;;;37.65;;
22015;SDS011;64992;51.698;-0.292;2024-01-25T07:15:37;57.13;;;35.40;;
22015;SDS011;64992;51.698;-0.292;2024-01-25T07:18:03;61.67;;;36.22;;
22015;SDS011;64992;51.698;-0.292;2024-01-25T07:20:29;70.40;;;37.90;;
22015;SDS011;64992;51.698;-0.292;2024-01-25T07:22:56;51.95;;;34.25;;
22015;SDS011;64992;51.698;-0.292;2024-01-25T07:25:22;86.18;;;39.22;;
22015;SDS011;64992;51.698;-0.292;2024-01-25T07:27:48;60.95;;;37.78;;
22015;SDS011;64992;51.698;-0.292;2024-01-25T07:30:14;86.80;;;42.25;;
22015;SDS011;64992;51.698;-0.292;2024-01-25T07:32:41;72.28;;;39.55;;
22015;SDS011;64992;51.698;-0.292;2024-01-25T07:35:07;76.82;;;40.17;;
22015;SDS011;64992;51.698;-0.292;2024-01-25T07:37:37;94.88;;;39.35;;
22015;SDS011;64992;51.698;-0.292;2024-01-25T07:40:03;91.57;;;39.25;;
22015;SDS011;64992;51.698;-0.292;2024-01-25T07:42:29;68.70;;;38.53;;
22015;SDS011;64992;51.698;-0.292;2024-01-25T07:44:55;50.97;;;36.38;;
22015;SDS011;64992;51.698;-0.292;2024-01-25T07:47:21;206.20;;;49.40;;
22015;SDS011;64992;51.698;-0.292;2024-01-25T07:49:47;99.47;;;40.83;;
22015;SDS011;64992;51.698;-0.292;2024-01-25T07:52:14;95.47;;;40.53;;
22015;SDS011;64992;51.698;-0.292;2024-01-25T07:54:40;71.90;;;39.13;;
22015;SDS011;64992;51.698;-0.292;2024-01-25T07:57:06;93.10;;;39.13;;
22015;SDS011;64992;51.698;-0.292;2024-01-25T07:59:32;93.35;;;41.00;;
22015;SDS011;64992;51.698;-0.292;2024-01-25T08:01:59;114.72;;;41.97;;
22015;SDS011;64992;51.698;-0.292;2024-01-25T08:04:25;70.72;;;38.33;;
22015;SDS011;64992;51.698;-0.292;2024-01-25T08:06:51;86.25;;;40.75;;
22015;SDS011;64992;51.698;-0.292;2024-01-25T08:09:18;74.05;;;41.90;;
22015;SDS011;64992;51.698;-0.292;2024-01-25T08:11:44;69.18;;;40.33;;
22015;SDS011;64992;51.698;-0.292;2024-01-25T08:14:10;95.43;;;43.58;;
22015;SDS011;64992;51.698;-0.292;2024-01-25T08:16:37;87.40;;;40.20;;
22015;SDS011;64992;51.698;-0.292;2024-01-25T08:19:03;82.85;;;41.40;;
22015;SDS011;64992;51.698;-0.292;2024-01-25T08:21:29;79.70;;;39.45;;
22015;SDS011;64992;51.698;-0.292;2024-01-25T08:23:55;86.50;;;42.53;;
22015;SDS011;64992;51.698;-0.292;2024-01-25T08:26:21;125.70;;;44.58;;
22015;SDS011;64992;51.698;-0.292;2024-01-25T08:28:47;83.80;;;43.10;;
22015;SDS011;64992;51.698;-0.292;2024-01-25T08:31:13;64.25;;;39.67;;
22015;SDS011;64992;51.698;-0.292;2024-01-25T08:33:40;195.80;;;47.92;;
22015;SDS011;64992;51.698;-0.292;2024-01-25T08:36:12;81.28;;;40.65;;
22015;SDS011;64992;51.698;-0.292;2024-01-25T08:38:38;54.80;;;39.33;;
22015;SDS011;64992;51.698;-0.292;2024-01-25T08:41:04;77.70;;;42.30;;
22015;SDS011;64992;51.698;-0.292;2024-01-25T08:43:30;76.28;;;40.53;;
22015;SDS011;64992;51.698;-0.292;2024-01-25T08:45:56;191.32;;;48.83;;
22015;SDS011;64992;51.698;-0.292;2024-01-25T08:48:23;114.90;;;42.95;;
22015;SDS011;64992;51.698;-0.292;2024-01-25T08:50:49;47.90;;;39.67;;
22015;SDS011;64992;51.698;-0.292;2024-01-25T08:53:18;129.85;;;45.92;;
22015;SDS011;64992;51.698;-0.292;2024-01-25T08:55:47;143.98;;;46.47;;
22015;SDS011;64992;51.698;-0.292;2024-01-25T08:58:13;101.43;;;47.70;;
22015;SDS011;64992;51.698;-0.292;2024-01-25T09:00:39;88.75;;;48.80;;
22015;SDS011;64992;51.698;-0.292;2024-01-25T09:03:05;49.25;;;43.55;;
22015;SDS011;64992;51.698;-0.292;2024-01-25T09:05:31;62.70;;;43.60;;
22015;SDS011;64992;51.698;-0.292;2024-01-25T09:07:59;64.65;;;44.78;;
22015;SDS011;64992;51.698;-0.292;2024-01-25T09:10:25;49.28;;;44.03;;
22015;SDS011;64992;51.698;-0.292;2024-01-25T09:12:51;56.95;;;45.75;;
22015;SDS011;64992;51.698;-0.292;2024-01-25T09:15:17;67.68;;;44.63;;
22015;SDS011;64992;51.698;-0.292;2024-01-25T09:17:43;61.95;;;44.53;;
22015;SDS011;64992;51.698;-0.292;2024-01-25T09:20:10;87.75;;;45.72;;
22015;SDS011;64992;51.698;-0.292;2024-01-25T09:22:36;257.88;;;56.95;;
22015;SDS011;64992;51.698;-0.292;2024-01-25T09:25:03;103.43;;;47.63;;
22015;SDS011;64992;51.698;-0.292;2024-01-25T09:27:29;61.85;;;46.92;;
22015;SDS011;64992;51.698;-0.292;2024-01-25T09:29:55;205.48;;;55.80;;
22015;SDS011;64992;51.698;-0.292;2024-01-25T09:32:21;69.35;;;46.55;;
22015;SDS011;64992;51.698;-0.292;2024-01-25T09:34:47;58.30;;;45.42;;
22015;SDS011;64992;51.698;-0.292;2024-01-25T09:37:13;84.18;;;47.20;;
22015;SDS011;64992;51.698;-0.292;2024-01-25T09:39:40;69.05;;;45.83;;
22015;SDS011;64992;51.698;-0.292;2024-01-25T09:42:06;67.07;;;49.80;;
22015;SDS011;64992;51.698;-0.292;2024-01-25T09:44:33;228.13;;;59.22;;
22015;SDS011;64992;51.698;-0.292;2024-01-25T09:47:00;62.70;;;47.58;;
22015;SDS011;64992;51.698;-0.292;2024-01-25T09:49:29;54.22;;;43.92;;
22015;SDS011;64992;51.698;-0.292;2024-01-25T09:51:55;145.05;;;52.97;;
22015;SDS011;64992;51.698;-0.292;2024-01-25T09:54:21;68.85;;;48.47;;
22015;SDS011;64992;51.698;-0.292;2024-01-25T09:56:47;96.50;;;48.95;;
22015;SDS011;64992;51.698;-0.292;2024-01-25T09:59:16;58.35;;;45.60;;
22015;SDS011;64992;51.698;-0.292;2024-01-25T10:01:42;94.63;;;46.97;;
22015;SDS011;64992;51.698;-0.292;2024-01-25T10:04:09;54.20;;;42.05;;
22015;SDS011;64992;51.698;-0.292;2024-01-25T10:06:35;49.67;;;43.88;;
22015;SDS011;64992;51.698;-0.292;2024-01-25T10:09:01;55.03;;;44.72;;
22015;SDS011;64992;51.698;-0.292;2024-01-25T10:11:28;277.25;;;60.63;;
22015;SDS011;64992;51.698;-0.292;2024-01-25T10:14:00;50.70;;;44.80;;
22015;SDS011;64992;51.698;-0.292;2024-01-25T10:16:26;57.08;;;43.80;;
22015;SDS011;64992;51.698;-0.292;2024-01-25T10:18:52;56.95;;;42.55;;
22015;SDS011;64992;51.698;-0.292;2024-01-25T10:21:19;53.38;;;42.15;;
22015;SDS011;64992;51.698;-0.292;2024-01-25T10:23:46;96.35;;;46.00;;
22015;SDS011;64992;51.698;-0.292;2024-01-25T10:26:12;49.08;;;42.80;;
22015;SDS011;64992;51.698;-0.292;2024-01-25T10:28:39;42.47;;;38.03;;
22015;SDS011;64992;51.698;-0.292;2024-01-25T10:31:05;49.50;;;39.92;;
22015;SDS011;64992;51.698;-0.292;2024-01-25T10:33:32;70.90;;;41.08;;
22015;SDS011;64992;51.698;-0.292;2024-01-25T10:35:59;44.80;;;40.05;;
22015;SDS011;64992;51.698;-0.292;2024-01-25T10:38:33;47.03;;;39.38;;
22015;SDS011;64992;51.698;-0.292;2024-01-25T10:41:00;42.08;;;37.47;;
22015;SDS011;64992;51.698;-0.292;2024-01-25T10:43:27;119.03;;;44.63;;
22015;SDS011;64992;51.698;-0.292;2024-01-25T10:45:55;40.40;;;35.95;;
22015;SDS011;64992;51.698;-0.292;2024-01-25T10:48:23;41.40;;;36.30;;
22015;SDS011;64992;51.698;-0.292;2024-01-25T10:50:50;53.03;;;37.03;;
22015;SDS011;64992;51.698;-0.292;2024-01-25T10:53:16;41.72;;;36.10;;
22015;SDS011;64992;51.698;-0.292;2024-01-25T10:55:43;53.55;;;37.78;;
22015;SDS011;64992;51.698;-0.292;2024-01-25T10:58:12;46.90;;;39.13;;
22015;SDS011;64992;51.698;-0.292;2024-01-25T11:00:38;41.35;;;36.45;;
22015;SDS011;64992;51.698;-0.292;2024-01-25T11:03:04;40.67;;;36.40;;
22015;SDS011;64992;51.698;-0.292;2024-01-25T11:05:31;47.08;;;35.58;;
22015;SDS011;64992;51.698;-0.292;2024-01-25T11:07:58;47.30;;;36.10;;
22015;SDS011;64992;51.698;-0.292;2024-01-25T11:10:24;39.25;;;35.22;;
22015;SDS011;64992;51.698;-0.292;2024-01-25T11:13:01;36.35;;;32.80;;
22015;SDS011;64992;51.698;-0.292;2024-01-25T11:15:32;45.20;;;33.92;;
22015;SDS011;64992;51.698;-0.292;2024-01-25T11:17:59;33.83;;;31.30;;
22015;SDS011;64992;51.698;-0.292;2024-01-25T11:20:26;44.63;;;33.10;;
22015;SDS011;64992;51.698;-0.292;2024-01-25T11:23:01;34.63;;;31.08;;
22015;SDS011;64992;51.698;-0.292;2024-01-25T11:25:27;37.95;;;31.45;;
22015;SDS011;64992;51.698;-0.292;2024-01-25T11:27:54;35.63;;;30.77;;
22015;SDS011;64992;51.698;-0.292;2024-01-25T11:30:20;41.58;;;31.08;;
22015;SDS011;64992;51.698;-0.292;2024-01-25T11:32:48;36.05;;;32.22;;
22015;SDS011;64992;51.698;-0.292;2024-01-25T11:35:14;35.75;;;32.35;;
22015;SDS011;64992;51.698;-0.292;2024-01-25T11:37:46;35.63;;;31.88;;
22015;SDS011;64992;51.698;-0.292;2024-01-25T11:40:13;34.47;;;30.95;;
22015;SDS011;64992;51.698;-0.292;2024-01-25T11:42:40;37.65;;;31.60;;
22015;SDS011;64992;51.698;-0.292;2024-01-25T11:45:08;38.28;;;30.70;;
22015;SDS011;64992;51.698;-0.292;2024-01-25T11:47:34;44.40;;;30.67;;
22015;SDS011;64992;51.698;-0.292;2024-01-25T11:50:01;39.10;;;31.20;;
22015;SDS011;64992;51.698;-0.292;2024-01-25T11:52:27;32.78;;;28.58;;
22015;SDS011;64992;51.698;-0.292;2024-01-25T11:54:53;35.88;;;27.73;;
22015;SDS011;64992;51.698;-0.292;2024-01-25T11:57:19;45.80;;;28.83;;
22015;SDS011;64992;51.698;-0.292;2024-01-25T11:59:46;37.20;;;26.90;;
22015;SDS011;64992;51.698;-0.292;2024-01-25T12:02:13;31.40;;;27.83;;
22015;SDS011;64992;51.698;-0.292;2024-01-25T12:04:39;29.63;;;26.42;;
22015;SDS011;64992;51.698;-0.292;2024-01-25T12:07:05;28.77;;;25.77;;
22015;SDS011;64992;51.698;-0.292;2024-01-25T12:09:31;28.90;;;25.63;;
22015;SDS011;64992;51.698;-0.292;2024-01-25T12:11:57;32.00;;;25.95;;
22015;SDS011;64992;51.698;-0.292;2024-01-25T12:14:25;31.35;;;24.70;;
22015;SDS011;64992;51.698;-0.292;2024-01-25T12:16:52;35.17;;;23.40;;
22015;SDS011;64992;51.698;-0.292;2024-01-25T12:19:18;25.65;;;23.08;;
22015;SDS011;64992;51.698;-0.292;2024-01-25T12:21:44;26.67;;;24.10;;
22015;SDS011;64992;51.698;-0.292;2024-01-25T12:24:10;42.05;;;23.38;;
22015;SDS011;64992;51.698;-0.292;2024-01-25T12:26:36;24.80;;;22.38;;
22015;SDS011;64992;51.698;-0.292;2024-01-25T12:29:02;25.15;;;22.60;;
22015;SDS011;64992;51.698;-0.292;2024-01-25T12:31:29;29.27;;;21.60;;
22015;SDS011;64992;51.698;-0.292;2024-01-25T12:33:56;22.50;;;20.58;;
22015;SDS011;64992;51.698;-0.292;2024-01-25T12:36:23;32.83;;;21.88;;
22015;SDS011;64992;51.698;-0.292;2024-01-25T12:38:49;26.85;;;20.73;;
22015;SDS011;64992;51.698;-0.292;2024-01-25T12:41:15;32.08;;;20.55;;
22015;SDS011;64992;51.698;-0.292;2024-01-25T12:52:52;20.17;;;17.73;;
22015;SDS011;64992;51.698;-0.292;2024-01-25T12:55:18;27.63;;;17.67;;
22015;SDS011;64992;51.698;-0.292;2024-01-25T12:57:44;26.80;;;17.75;;
22015;SDS011;64992;51.698;-0.292;2024-01-25T13:00:10;24.33;;;16.88;;
22015;SDS011;64992;51.698;-0.292;2024-01-25T13:02:36;21.73;;;17.17;;
22015;SDS011;64992;51.698;-0.292;2024-01-25T13:05:02;22.20;;;18.10;;
22015;SDS011;64992;51.698;-0.292;2024-01-25T13:07:28;22.05;;;15.63;;
22015;SDS011;64992;51.698;-0.292;2024-01-25T13:09:54;16.38;;;14.95;;
22015;SDS011;64992;51.698;-0.292;2024-01-25T13:12:20;26.30;;;14.32;;
22015;SDS011;64992;51.698;-0.292;2024-01-25T13:14:46;14.95;;;13.65;;
22015;SDS011;64992;51.698;-0.292;2024-01-25T13:17:12;24.33;;;13.80;;
22015;SDS011;64992;51.698;-0.292;2024-01-25T13:19:38;23.02;;;14.32;;
22015;SDS011;64992;51.698;-0.292;2024-01-25T13:22:04;20.67;;;13.63;;
22015;SDS011;64992;51.698;-0.292;2024-01-25T13:24:30;16.10;;;14.45;;
22015;SDS011;64992;51.698;-0.292;2024-01-25T13:26:56;15.73;;;12.93;;
22015;SDS011;64992;51.698;-0.292;2024-01-25T13:29:22;21.50;;;12.98;;
22015;SDS011;64992;51.698;-0.292;2024-01-25T13:31:48;16.75;;;13.02;;
22015;SDS011;64992;51.698;-0.292;2024-01-25T13:34:14;16.13;;;12.45;;
22015;SDS011;64992;51.698;-0.292;2024-01-25T13:36:40;19.90;;;13.63;;
22015;SDS011;64992;51.698;-0.292;2024-01-25T13:39:06;23.73;;;12.38;;
22015;SDS011;64992;51.698;-0.292;2024-01-25T13:41:34;15.60;;;13.95;;
22015;SDS011;64992;51.698;-0.292;2024-01-25T13:44:00;15.02;;;13.27;;
22015;SDS011;64992;51.698;-0.292;2024-01-25T13:46:26;15.80;;;14.23;;
22015;SDS011;64992;51.698;-0.292;2024-01-25T13:48:52;15.75;;;12.77;;
22015;SDS011;64992;51.698;-0.292;2024-01-25T13:51:18;13.60;;;12.23;;
22015;SDS011;64992;51.698;-0.292;2024-01-25T13:53:44;18.70;;;12.57;;
22015;SDS011;64992;51.698;-0.292;2024-01-25T13:56:11;14.48;;;12.35;;
22015;SDS011;64992;51.698;-0.292;2024-01-25T13:58:36;16.42;;;13.68;;
22015;SDS011;64992;51.698;-0.292;2024-01-25T14:01:02;17.55;;;12.52;;
22015;SDS011;64992;51.698;-0.292;2024-01-25T14:03:29;16.92;;;11.90;;
22015;SDS011;64992;51.698;-0.292;2024-01-25T14:05:56;12.48;;;11.23;;
22015;SDS011;64992;51.698;-0.292;2024-01-25T14:08:22;12.98;;;11.57;;
22015;SDS011;64992;51.698;-0.292;2024-01-25T14:10:48;12.23;;;11.32;;
22015;SDS011;64992;51.698;-0.292;2024-01-25T14:13:14;14.63;;;12.15;;
22015;SDS011;64992;51.698;-0.292;2024-01-25T14:15:40;14.40;;;11.55;;